Time;durP1;ratioP1;P1;durP2;ratioP2;P2;SDS_P1;SDS_P2;PMS_P1;PMS_P2;Temp;Humidity;BMP_temperature;BMP_pressure;BME280_temperature;BME280_humidity;BME280_pressure;Samples;Min_cycle;Max_cycle;Signal;HPM_P1;HPM_P2
2022/07/18 00:00:09;;;;;;;6.47;4.30;;;22.20;55.30;;;;;;10407990;28;20029;-63
2022/07/18 00:05:09;;;;;;;6.75;4.43;;;22.20;55.40;;;;;;10394382;28;20469;-63
2022/07/18 00:10:10;;;;;;;6.93;3.83;;;22.20;55.30;;;;;;10379348;28;20030;-63
2022/07/18 00:15:11;;;;;;;7.88;4.25;;;22.20;55.30;;;;;;10377917;28;20383;-63
2022/07/18 00:20:12;;;;;;;6.68;3.88;;;22.10;55.20;;;;;;10394336;28;20385;-63
2022/07/18 00:25:12;;;;;;;5.75;4.43;;;22.10;55.20;;;;;;10373877;28;20048;-64
2022/07/18 00:30:13;;;;;;;6.82;3.92;;;22.10;55.20;;;;;;10366268;28;20025;-63
2022/07/18 00:35:14;;;;;;;5.60;4.28;;;22.10;55.20;;;;;;10384876;28;20037;-64
2022/07/18 00:40:15;;;;;;;5.65;3.58;;;22.10;55.20;;;;;;10369009;28;20066;-63
2022/07/18 00:45:16;;;;;;;6.32;4.20;;;22.10;55.20;;;;;;10384229;28;20576;-66
2022/07/18 00:50:16;;;;;;;5.47;3.63;;;22.10;55.20;;;;;;10393346;28;20033;-63
2022/07/18 00:55:17;;;;;;;6.65;3.88;;;22.10;55.10;;;;;;10383309;28;20415;-63
2022/07/18 01:05:37;;;;;;;5.40;3.72;;;22.10;55.10;;;;;;10401132;28;20030;-63
2022/07/18 01:10:38;;;;;;;6.70;3.88;;;22.10;55.10;;;;;;10407202;28;20029;-63
2022/07/18 01:15:39;;;;;;;6.55;4.70;;;22.10;55.20;;;;;;10401866;28;20488;-63
2022/07/18 01:20:40;;;;;;;6.30;3.67;;;22.10;55.40;;;;;;10393435;28;20033;-63
2022/07/18 01:25:40;;;;;;;5.97;4.05;;;22.00;55.30;;;;;;10391276;28;20039;-63
2022/07/18 01:30:41;;;;;;;5.18;4.10;;;22.00;55.20;;;;;;10396878;28;20040;-63
2022/07/18 01:35:42;;;;;;;6.25;3.90;;;22.00;55.20;;;;;;10372431;28;20207;-63
2022/07/18 01:40:43;;;;;;;6.72;3.63;;;22.00;55.10;;;;;;10386675;28;20054;-63
2022/07/18 01:45:43;;;;;;;6.78;3.72;;;22.00;55.10;;;;;;10397453;28;20052;-63
2022/07/18 01:50:45;;;;;;;5.43;4.00;;;22.00;54.90;;;;;;10386093;28;20377;-63
2022/07/18 01:55:47;;;;;;;6.18;4.22;;;22.00;54.90;;;;;;10399309;28;20034;-63
2022/07/18 02:00:47;;;;;;;6.72;3.78;;;22.10;55.00;;;;;;10412535;28;20443;-63
2022/07/18 02:05:48;;;;;;;4.95;3.83;;;22.00;54.90;;;;;;10393420;28;20100;-63
2022/07/18 02:10:49;;;;;;;5.00;3.35;;;22.00;54.80;;;;;;10384322;28;20030;-63
2022/07/18 02:15:50;;;;;;;6.80;5.13;;;22.00;54.80;;;;;;10380967;28;20029;-63
2022/07/18 02:20:50;;;;;;;5.30;3.65;;;22.00;54.80;;;;;;10390736;28;20712;-63
2022/07/18 02:25:51;;;;;;;5.88;3.88;;;22.00;54.80;;;;;;10411653;28;20480;-63
2022/07/18 02:30:52;;;;;;;6.25;3.70;;;22.00;54.80;;;;;;10373281;28;20107;-63
2022/07/18 02:35:53;;;;;;;5.60;4.10;;;22.00;54.70;;;;;;10379648;28;20037;-64
2022/07/18 02:40:54;;;;;;;5.22;3.75;;;22.00;54.80;;;;;;10369765;28;20095;-63
2022/07/18 02:45:54;;;;;;;6.47;3.70;;;21.90;54.60;;;;;;10382835;28;20526;-63
2022/07/18 02:50:55;;;;;;;5.20;3.70;;;22.00;54.70;;;;;;10370606;28;20485;-63
2022/07/18 02:55:56;;;;;;;5.25;3.90;;;21.90;54.60;;;;;;10409714;28;20692;-64
2022/07/18 03:00:57;;;;;;;5.78;3.10;;;21.90;54.70;;;;;;10391073;28;20459;-63
2022/07/18 03:05:57;;;;;;;5.00;3.85;;;21.90;54.60;;;;;;10397467;28;20243;-63
2022/07/18 03:10:58;;;;;;;4.88;3.63;;;21.90;54.60;;;;;;10370092;28;20034;-63
2022/07/18 03:15:59;;;;;;;4.78;3.13;;;21.90;54.60;;;;;;10368154;28;20030;-63
2022/07/18 03:21:00;;;;;;;6.13;3.33;;;21.90;54.60;;;;;;10368377;28;20034;-63
2022/07/18 03:26:01;;;;;;;5.25;4.03;;;21.90;54.60;;;;;;10368416;28;20140;-63
2022/07/18 03:31:03;;;;;;;5.85;3.88;;;21.90;54.50;;;;;;10389889;28;20025;-63
2022/07/18 03:36:05;;;;;;;6.38;3.60;;;21.90;54.50;;;;;;10383616;28;20133;-63
2022/07/18 03:41:06;;;;;;;5.93;3.67;;;21.90;54.50;;;;;;10365098;28;20150;-63
2022/07/18 03:46:07;;;;;;;5.30;4.00;;;21.90;54.50;;;;;;10367759;28;20709;-63
2022/07/18 03:51:08;;;;;;;5.97;3.78;;;21.90;54.40;;;;;;10367485;28;20026;-63
2022/07/18 03:56:09;;;;;;;5.30;3.55;;;21.90;54.50;;;;;;10373330;28;20053;-63
2022/07/18 04:01:10;;;;;;;3.85;3.03;;;21.80;54.40;;;;;;10382720;28;20037;-63
2022/07/18 04:06:10;;;;;;;4.57;3.30;;;21.90;54.50;;;;;;10379509;28;20033;-63
2022/07/18 04:11:11;;;;;;;5.32;3.35;;;21.90;54.70;;;;;;10367669;28;20087;-63
2022/07/18 04:16:12;;;;;;;4.90;3.38;;;21.80;54.50;;;;;;10367847;28;20128;-63
2022/07/18 04:21:13;;;;;;;5.72;3.30;;;21.80;54.60;;;;;;10375843;28;20381;-63
2022/07/18 04:26:14;;;;;;;4.72;3.25;;;21.80;54.80;;;;;;10365984;28;20030;-63
2022/07/18 04:31:14;;;;;;;6.00;3.92;;;21.80;54.50;;;;;;10383269;28;20034;-63
2022/07/18 04:36:15;;;;;;;6.00;3.70;;;21.80;54.50;;;;;;10376262;28;20594;-63
2022/07/18 04:41:16;;;;;;;5.78;3.47;;;21.80;54.70;;;;;;10397405;28;20041;-64
2022/07/18 04:46:17;;;;;;;9.05;4.45;;;21.90;56.30;;;;;;10379549;28;20372;-66
2022/07/18 04:51:18;;;;;;;9.18;4.53;;;22.00;56.30;;;;;;10384471;28;20029;-64
2022/07/18 04:56:19;;;;;;;8.70;4.82;;;22.10;57.00;;;;;;10397338;28;20423;-61
2022/07/18 05:01:19;;;;;;;12.85;5.10;;;22.20;57.10;;;;;;10393417;28;20552;-61
2022/07/18 05:06:20;;;;;;;9.95;5.00;;;22.10;58.30;;;;;;10387206;28;20037;-61
2022/07/18 05:11:21;;;;;;;7.57;4.32;;;22.10;58.30;;;;;;10393488;28;20033;-61
2022/07/18 05:16:22;;;;;;;10.10;5.10;;;22.10;57.90;;;;;;10395994;28;20105;-63
2022/07/18 05:21:22;;;;;;;13.77;4.75;;;22.00;57.80;;;;;;10370764;28;20175;-63
2022/07/18 05:26:23;;;;;;;16.00;4.65;;;22.00;57.60;;;;;;10403249;28;20037;-63
2022/07/18 05:31:24;;;;;;;8.95;4.45;;;22.00;57.40;;;;;;10403489;28;20040;-64
2022/07/18 05:36:24;;;;;;;12.55;4.43;;;22.00;57.10;;;;;;10401343;28;20615;-64
2022/07/18 05:41:25;;;;;;;13.93;4.38;;;21.90;57.30;;;;;;10393030;28;20061;-66
2022/07/18 05:46:26;;;;;;;13.10;4.05;;;21.90;57.30;;;;;;10396005;28;20480;-63
2022/07/18 05:51:27;;;;;;;9.15;4.15;;;21.90;56.80;;;;;;10399145;28;20030;-66
2022/07/18 05:56:27;;;;;;;12.27;4.80;;;21.90;57.40;;;;;;10365430;28;20089;-63
2022/07/18 06:01:28;;;;;;;9.15;4.55;;;21.90;57.50;;;;;;10389937;28;20365;-63
2022/07/18 06:06:30;;;;;;;11.57;4.72;;;21.90;58.00;;;;;;10374599;28;20555;-65
2022/07/18 06:11:30;;;;;;;12.70;4.68;;;21.90;58.10;;;;;;10411304;28;20029;-62
2022/07/18 06:16:31;;;;;;;19.10;3.95;;;21.90;58.50;;;;;;10396639;28;20052;-62
2022/07/18 06:21:32;;;;;;;15.48;4.60;;;21.90;58.10;;;;;;10378895;28;20029;-62
2022/07/18 06:26:33;;;;;;;17.67;4.28;;;21.90;57.60;;;;;;10370855;28;20065;-63
2022/07/18 06:31:34;;;;;;;11.52;4.05;;;21.90;57.60;;;;;;10375529;28;20034;-63
2022/07/18 06:36:34;;;;;;;13.40;4.88;;;21.90;57.60;;;;;;10367656;28;20120;-62
2022/07/18 06:41:35;;;;;;;8.80;3.80;;;21.80;57.60;;;;;;10366220;28;20053;-63
2022/07/18 06:46:36;;;;;;;7.95;4.10;;;21.90;57.60;;;;;;10367095;28;20033;-62
2022/07/18 06:51:37;;;;;;;6.80;3.55;;;21.90;57.40;;;;;;10382104;28;20026;-62
2022/07/18 06:56:37;;;;;;;10.43;4.45;;;21.90;57.40;;;;;;10368543;28;20064;-63
2022/07/18 07:01:38;;;;;;;7.47;3.58;;;21.90;57.30;;;;;;10368071;28;20022;-62
2022/07/18 07:06:39;;;;;;;8.63;2.92;;;21.90;57.30;;;;;;10394086;28;20428;-63
2022/07/18 07:11:40;;;;;;;8.68;3.28;;;21.90;57.30;;;;;;10367349;28;20461;-62
2022/07/18 07:16:40;;;;;;;8.43;3.58;;;21.90;57.50;;;;;;10368987;28;20045;-62
2022/07/18 07:21:41;;;;;;;6.50;2.97;;;21.90;57.60;;;;;;10380750;28;20149;-62
2022/07/18 07:26:42;;;;;;;10.00;3.85;;;21.90;57.50;;;;;;10368238;28;20076;-62
2022/07/18 07:31:42;;;;;;;8.82;3.38;;;21.90;58.20;;;;;;10367131;28;20034;-64
2022/07/18 07:36:43;;;;;;;7.95;3.05;;;21.90;58.10;;;;;;10379610;28;20175;-61
2022/07/18 07:41:44;;;;;;;5.68;3.28;;;22.00;57.70;;;;;;10366426;28;20042;-61
2022/07/18 07:46:45;;;;;;;7.10;3.00;;;21.90;57.50;;;;;;10367208;28;20543;-61
2022/07/18 07:51:46;;;;;;;7.25;3.00;;;22.00;57.60;;;;;;10366189;28;20381;-62
2022/07/18 07:56:46;;;;;;;9.27;2.72;;;22.00;57.50;;;;;;10366277;28;20428;-61
2022/07/18 08:01:47;;;;;;;7.75;3.00;;;22.00;57.60;;;;;;10367032;28;20040;-63
2022/07/18 08:06:48;;;;;;;6.10;2.58;;;22.00;57.30;;;;;;10362443;28;20033;-63
2022/07/18 08:11:48;;;;;;;6.82;2.88;;;22.00;57.40;;;;;;10366535;28;20504;-64
2022/07/18 08:16:49;;;;;;;6.35;2.85;;;22.00;57.50;;;;;;10365470;28;20037;-64
2022/07/18 08:21:50;;;;;;;4.38;2.95;;;22.00;57.50;;;;;;10385798;28;20037;-64
2022/07/18 08:26:51;;;;;;;6.95;2.72;;;22.10;57.60;;;;;;10407255;28;20033;-64
2022/07/18 08:31:51;;;;;;;7.80;2.50;;;22.10;57.90;;;;;;10380435;28;20026;-63
2022/07/18 08:36:52;;;;;;;5.97;2.80;;;22.10;57.80;;;;;;10392997;28;20891;-64
2022/07/18 08:41:55;;;;;;;12.88;2.78;;;22.10;58.00;;;;;;10405334;28;20168;-64
2022/07/18 08:46:59;;;;;;;6.03;2.60;;;22.10;57.70;;;;;;10396891;28;20473;-64
2022/07/18 08:52:00;;;;;;;9.25;2.85;;;22.10;57.50;;;;;;10365115;28;20108;-64
2022/07/18 08:57:01;;;;;;;8.60;2.90;;;22.10;57.10;;;;;;10391139;28;20084;-64
2022/07/18 09:02:01;;;;;;;5.93;2.42;;;22.10;57.20;;;;;;10365137;28;20052;-64
2022/07/18 09:07:04;;;;;;;6.40;2.67;;;22.10;57.00;;;;;;10406674;28;20108;-64
2022/07/18 09:12:09;;;;;;;6.03;1.95;;;22.10;57.30;;;;;;10406156;28;20492;-63
2022/07/18 09:17:22;;;;;;;5.05;2.03;;;22.10;56.60;;;;;;10396608;28;20109;-63
2022/07/18 09:22:26;;;;;;;3.65;1.85;;;22.10;56.80;;;;;;10387892;28;20072;-63
2022/07/18 09:27:49;;;;;;;6.82;2.80;;;22.10;56.60;;;;;;10374238;28;20048;-64
2022/07/18 09:33:10;;;;;;;5.32;2.10;;;22.10;56.50;;;;;;10356395;28;20036;-64
2022/07/18 09:38:20;;;;;;;4.70;2.30;;;22.10;56.20;;;;;;10398877;28;20041;-63
2022/07/18 09:43:24;;;;;;;3.25;1.70;;;22.10;56.00;;;;;;10398595;28;20041;-63
2022/07/18 09:48:27;;;;;;;5.90;2.10;;;22.10;56.10;;;;;;10382555;28;20033;-64
2022/07/18 09:53:37;;;;;;;5.03;3.00;;;22.10;54.90;;;;;;10388722;28;20046;-64
2022/07/18 09:58:53;;;;;;;5.25;2.33;;;22.10;55.80;;;;;;10385864;28;20539;-65
2022/07/18 10:03:54;;;;;;;5.75;2.15;;;22.10;56.10;;;;;;10398882;28;20041;-64
2022/07/18 10:08:55;;;;;;;7.57;1.90;;;22.20;63.50;;;;;;10394937;28;20052;-65
2022/07/18 10:13:56;;;;;;;5.40;2.22;;;22.20;62.10;;;;;;10372148;28;20075;-64
2022/07/18 10:18:56;;;;;;;4.00;1.92;;;22.30;61.30;;;;;;10372512;28;20079;-66
2022/07/18 10:24:01;;;;;;;5.18;2.22;;;22.30;60.80;;;;;;10370633;28;20117;-66
2022/07/18 10:29:02;;;;;;;5.13;2.35;;;22.30;61.30;;;;;;10378607;28;20029;-65
2022/07/18 10:34:11;;;;;;;8.10;2.28;;;22.30;59.80;;;;;;10371670;28;20034;-65
2022/07/18 10:39:19;;;;;;;5.85;1.77;;;22.30;58.80;;;;;;10369811;28;20358;-65
2022/07/18 10:44:29;;;;;;;5.63;2.33;;;22.20;59.80;;;;;;10399955;28;20558;-65
2022/07/18 10:49:52;;;;;;;8.60;3.35;;;22.20;58.30;;;;;;10394255;28;20042;-65
2022/07/18 10:55:02;;;;;;;5.57;2.38;;;22.20;59.70;;;;;;10370768;28;20069;-65
2022/07/18 11:00:11;;;;;;;5.57;2.08;;;22.20;57.70;;;;;;10370355;28;20045;-66
2022/07/18 11:05:24;;;;;;;8.70;2.30;;;22.20;58.60;;;;;;10408253;28;20022;-66
2022/07/18 11:10:51;;;;;;;12.60;2.28;;;22.30;58.50;;;;;;10394823;28;20994;-66
2022/07/18 11:16:15;;;;;;;5.85;2.22;;;22.30;57.30;;;;;;10382123;28;20036;-63
2022/07/18 11:21:28;;;;;;;6.88;2.47;;;22.30;59.10;;;;;;10394967;28;20037;-62
2022/07/18 11:26:30;;;;;;;5.10;2.15;;;22.40;58.70;;;;;;10368386;28;20025;-62
2022/07/18 11:31:42;;;;;;;5.70;2.30;;;22.50;56.80;;;;;;10376999;28;20097;-62
2022/07/18 11:36:46;;;;;;;3.85;2.15;;;22.50;56.80;;;;;;10368859;28;20126;-61
2022/07/18 11:41:46;;;;;;;5.47;2.20;;;22.60;57.00;;;;;;10367248;28;20056;-65
2022/07/18 11:46:47;;;;;;;3.65;1.58;;;22.60;55.90;;;;;;10351214;28;20113;-66
2022/07/18 11:51:49;;;;;;;3.50;1.88;;;22.50;56.70;;;;;;10368617;28;20044;-65
2022/07/18 11:56:53;;;;;;;4.75;2.55;;;22.50;56.60;;;;;;10350768;28;20026;-66
2022/07/18 12:01:55;;;;;;;4.40;2.03;;;22.40;57.30;;;;;;10366869;28;20033;-64
2022/07/18 12:07:20;;;;;;;2.65;1.83;;;22.40;57.50;;;;;;10392958;28;20044;-65
2022/07/18 12:12:22;;;;;;;3.42;1.58;;;22.40;57.60;;;;;;10366511;28;20066;-65
2022/07/18 12:17:23;;;;;;;4.97;1.92;;;22.40;58.10;;;;;;10366684;28;20037;-63
2022/07/18 12:22:24;;;;;;;5.07;1.85;;;22.50;58.80;;;;;;10378275;28;20072;-65
2022/07/18 12:27:31;;;;;;;4.20;1.80;;;22.50;59.00;;;;;;10381316;28;20104;-65
2022/07/18 12:32:47;;;;;;;4.30;2.45;;;22.60;58.70;;;;;;10385144;28;20034;-65
2022/07/18 12:38:15;;;;;;;5.15;2.30;;;22.50;58.60;;;;;;10379558;28;20022;-65
2022/07/18 12:43:30;;;;;;;3.55;1.83;;;22.50;58.60;;;;;;10362765;28;20061;-66
2022/07/18 12:48:33;;;;;;;3.97;2.13;;;22.50;58.40;;;;;;10367107;28;20022;-67
2022/07/18 12:53:37;;;;;;;5.03;2.58;;;22.40;58.30;;;;;;10373907;28;20073;-65
2022/07/18 12:58:37;;;;;;;4.50;2.03;;;22.40;58.10;;;;;;10374079;28;20444;-66
2022/07/18 13:03:40;;;;;;;4.95;1.83;;;22.40;58.00;;;;;;10387599;28;20072;-66
2022/07/18 13:08:41;;;;;;;4.25;1.85;;;22.40;57.70;;;;;;10412317;28;20022;-67
2022/07/18 13:13:41;;;;;;;4.50;2.05;;;22.40;57.70;;;;;;10386761;28;20113;-67
2022/07/18 13:18:42;;;;;;;4.32;1.70;;;22.40;57.50;;;;;;10375016;28;20124;-68
2022/07/18 13:23:43;;;;;;;4.55;1.55;;;22.40;57.40;;;;;;10356862;28;20033;-68
2022/07/18 13:28:43;;;;;;;3.38;2.33;;;22.40;57.50;;;;;;10380837;28;20092;-67
2022/07/18 13:33:46;;;;;;;5.68;2.10;;;22.40;58.30;;;;;;10372672;28;20134;-66
2022/07/18 13:38:47;;;;;;;4.68;2.22;;;22.50;56.50;;;;;;10372432;28;20046;-67
2022/07/18 13:43:48;;;;;;;2.40;1.55;;;22.50;56.10;;;;;;10372254;28;20036;-66
2022/07/18 13:48:49;;;;;;;5.22;1.88;;;22.50;55.90;;;;;;10372334;28;20030;-65
2022/07/18 13:53:50;;;;;;;3.45;1.80;;;22.60;58.20;;;;;;10371914;28;20161;-65
2022/07/18 13:58:51;;;;;;;7.88;2.95;;;22.60;59.20;;;;;;10373143;28;20121;-65
2022/07/18 14:03:51;;;;;;;5.45;2.72;;;22.70;58.90;;;;;;10397307;28;20029;-66
2022/07/18 14:08:52;;;;;;;8.73;2.35;;;22.80;58.20;;;;;;10384261;28;20705;-65
2022/07/18 14:13:53;;;;;;;5.78;2.05;;;22.70;57.90;;;;;;10371069;28;20101;-64
2022/07/18 14:18:53;;;;;;;6.07;2.33;;;22.70;58.60;;;;;;10371320;28;20372;-64
2022/07/18 14:23:54;;;;;;;5.22;2.10;;;22.70;58.80;;;;;;10396411;28;20588;-66
2022/07/18 14:28:55;;;;;;;6.80;2.08;;;22.70;59.30;;;;;;10408608;28;20796;-66
2022/07/18 14:33:56;;;;;;;5.35;2.03;;;22.70;59.90;;;;;;10370238;28;20107;-66
2022/07/18 14:38:57;;;;;;;4.15;1.63;;;22.70;57.80;;;;;;10369930;28;20077;-66
2022/07/18 14:43:58;;;;;;;3.50;2.05;;;22.60;56.90;;;;;;10380046;28;20477;-65
2022/07/18 14:48:58;;;;;;;3.83;1.70;;;22.70;58.20;;;;;;10370923;28;20026;-65
2022/07/18 14:53:59;;;;;;;7.32;1.90;;;22.70;56.90;;;;;;10369625;28;20469;-66
2022/07/18 14:59:00;;;;;;;3.35;1.88;;;22.70;57.50;;;;;;10382783;28;20412;-65
2022/07/18 15:04:01;;;;;;;5.90;2.05;;;22.60;57.80;;;;;;10387269;28;20072;-65
2022/07/18 15:09:02;;;;;;;5.65;1.70;;;22.60;57.80;;;;;;10375809;28;20026;-67
2022/07/18 15:14:03;;;;;;;3.20;1.77;;;22.60;57.50;;;;;;10367823;28;20038;-63
2022/07/18 15:19:04;;;;;;;3.70;1.80;;;22.60;58.20;;;;;;10379915;28;20037;-64
2022/07/18 15:24:05;;;;;;;3.35;2.22;;;22.60;59.00;;;;;;10367759;28;20034;-65
2022/07/18 15:29:07;;;;;;;6.00;2.63;;;22.70;58.50;;;;;;10381480;28;20033;-64
2022/07/18 15:34:07;;;;;;;5.10;2.15;;;23.00;56.70;;;;;;10405343;28;20682;-64
2022/07/18 15:39:08;;;;;;;4.55;2.20;;;22.90;57.20;;;;;;10409860;28;20049;-66
2022/07/18 15:44:10;;;;;;;3.47;2.30;;;22.90;55.00;;;;;;10375591;28;20042;-66
2022/07/18 15:49:11;;;;;;;4.57;2.30;;;23.10;52.10;;;;;;10394366;28;20037;-63
2022/07/18 15:54:15;;;;;;;6.68;2.50;;;23.30;51.70;;;;;;10368049;28;20125;-66
2022/07/18 15:59:16;;;;;;;5.82;2.30;;;23.20;53.80;;;;;;10378553;28;20032;-66
2022/07/18 16:04:18;;;;;;;3.95;2.28;;;23.20;53.70;;;;;;10374850;28;20029;-66
2022/07/18 16:09:20;;;;;;;4.15;2.63;;;23.10;54.60;;;;;;10393543;28;20033;-65
2022/07/18 16:14:21;;;;;;;11.52;2.60;;;23.00;55.60;;;;;;10378964;28;20038;-65
2022/07/18 16:19:22;;;;;;;5.05;2.72;;;23.10;57.10;;;;;;10368094;28;20042;-65
2022/07/18 16:24:23;;;;;;;7.82;2.58;;;23.40;54.80;;;;;;10391056;28;20029;-64
2022/07/18 16:29:24;;;;;;;7.20;2.83;;;23.60;52.30;;;;;;10387171;28;20026;-65
2022/07/18 16:34:25;;;;;;;4.90;2.42;;;23.40;54.00;;;;;;10366232;28;20378;-65
2022/07/18 16:39:25;;;;;;;5.97;2.63;;;23.10;55.40;;;;;;10349357;28;20115;-66
2022/07/18 16:44:26;;;;;;;4.03;2.08;;;23.10;55.90;;;;;;10404205;28;20520;-66
2022/07/18 16:49:27;;;;;;;5.93;2.42;;;23.10;55.40;;;;;;10387739;28;20041;-65
2022/07/18 16:54:28;;;;;;;7.55;3.00;;;23.40;54.70;;;;;;10366187;28;20129;-65
2022/07/18 16:59:29;;;;;;;5.30;2.20;;;23.50;53.80;;;;;;10366133;28;20042;-64
2022/07/18 17:04:31;;;;;;;5.03;2.80;;;23.30;55.20;;;;;;10386475;28;20061;-65
2022/07/18 17:09:31;;;;;;;5.40;2.38;;;23.10;55.70;;;;;;10368680;28;20088;-64
2022/07/18 17:14:32;;;;;;;4.93;2.90;;;23.30;54.80;;;;;;10406779;28;20087;-63
2022/07/18 17:19:33;;;;;;;3.40;2.38;;;23.50;53.00;;;;;;10392512;28;20096;-63
2022/07/18 17:24:35;;;;;;;4.32;2.35;;;23.40;54.90;;;;;;10375086;28;20033;-65
2022/07/18 17:29:36;;;;;;;5.53;1.85;;;23.30;55.90;;;;;;10376811;28;20034;-64
2022/07/18 17:34:41;;;;;;;4.72;2.75;;;23.30;56.10;;;;;;10379362;28;20041;-64
2022/07/18 17:39:42;;;;;;;4.07;2.17;;;23.40;53.80;;;;;;10371212;28;20128;-63
2022/07/18 17:44:43;;;;;;;3.83;2.28;;;23.40;53.10;;;;;;10380643;28;20409;-64
2022/07/18 17:49:44;;;;;;;19.08;3.47;;;23.40;54.90;;;;;;10390046;28;20026;-66
2022/07/18 17:54:45;;;;;;;10.38;2.63;;;23.30;56.40;;;;;;10390442;28;20038;-64
2022/07/18 17:59:46;;;;;;;6.78;2.67;;;23.30;56.90;;;;;;10395135;28;20075;-65
2022/07/18 18:04:47;;;;;;;10.02;2.72;;;23.30;57.10;;;;;;10388140;28;20033;-65
2022/07/18 18:09:47;;;;;;;6.40;2.53;;;23.30;56.10;;;;;;10380420;28;20064;-63
2022/07/18 18:14:48;;;;;;;5.03;2.25;;;23.30;56.30;;;;;;10387650;28;20036;-64
2022/07/18 18:19:49;;;;;;;6.38;2.58;;;23.30;57.20;;;;;;10372341;28;20030;-64
2022/07/18 18:24:50;;;;;;;6.30;2.92;;;23.20;57.70;;;;;;10378665;28;20030;-64
2022/07/18 18:29:51;;;;;;;6.88;2.33;;;23.20;57.70;;;;;;10389821;28;20135;-65
2022/07/18 18:34:51;;;;;;;5.10;2.38;;;23.20;57.90;;;;;;10388981;28;20038;-64
2022/07/18 18:39:52;;;;;;;6.32;2.33;;;23.20;58.20;;;;;;10383160;28;20127;-64
2022/07/18 18:44:53;;;;;;;6.03;2.47;;;23.20;58.20;;;;;;10362547;28;20040;-64
2022/07/18 18:49:53;;;;;;;4.28;2.65;;;23.20;58.20;;;;;;10365250;28;20048;-64
2022/07/18 18:54:54;;;;;;;5.25;2.40;;;23.20;58.30;;;;;;10365287;28;20044;-63
2022/07/18 18:59:55;;;;;;;5.03;2.45;;;23.30;59.70;;;;;;10385445;28;20120;-63
2022/07/18 19:04:55;;;;;;;4.10;2.13;;;23.30;59.10;;;;;;10377593;28;20026;-63
2022/07/18 19:09:56;;;;;;;4.72;2.38;;;23.30;59.70;;;;;;10398767;28;20037;-63
2022/07/18 19:14:59;;;;;;;6.05;2.92;;;23.30;59.40;;;;;;10375794;28;20120;-63
2022/07/18 19:20:00;;;;;;;4.25;2.72;;;23.30;60.70;;;;;;10396158;28;20436;-63
2022/07/18 19:25:01;;;;;;;3.92;2.28;;;23.30;61.50;;;;;;10375627;28;20038;-62
2022/07/18 19:30:04;;;;;;;5.35;2.40;;;23.30;61.70;;;;;;10378747;28;20045;-62
2022/07/18 19:35:05;;;;;;;3.08;2.38;;;23.30;61.30;;;;;;10376137;28;20041;-62
2022/07/18 19:40:07;;;;;;;4.50;2.47;;;23.30;61.20;;;;;;10382154;28;20073;-62
2022/07/18 19:45:08;;;;;;;5.53;2.65;;;23.30;61.00;;;;;;10367489;28;20390;-62
2022/07/18 19:50:10;;;;;;;7.90;3.08;;;23.30;61.10;;;;;;10382818;28;20034;-63
2022/07/18 19:55:10;;;;;;;5.22;2.40;;;23.30;61.30;;;;;;10363564;28;20040;-62
2022/07/18 20:00:13;;;;;;;7.03;2.58;;;23.20;61.40;;;;;;10386914;28;20049;-63
2022/07/18 20:05:15;;;;;;;5.88;3.08;;;23.20;61.00;;;;;;10371872;28;20038;-61
2022/07/18 20:10:15;;;;;;;5.95;2.45;;;23.30;61.30;;;;;;10396669;28;20069;-64
2022/07/18 20:15:16;;;;;;;5.18;3.05;;;23.30;61.00;;;;;;10392887;28;20030;-64
2022/07/18 20:20:17;;;;;;;5.18;3.05;;;23.20;61.00;;;;;;10364485;28;20442;-64
2022/07/18 20:25:18;;;;;;;3.70;2.00;;;23.20;60.70;;;;;;10387418;28;20056;-64
2022/07/18 20:30:20;;;;;;;3.95;2.70;;;23.20;60.70;;;;;;10391028;28;20052;-64
2022/07/18 20:35:20;;;;;;;3.75;2.38;;;23.20;60.60;;;;;;10367241;28;20088;-64
2022/07/18 20:40:22;;;;;;;5.28;2.20;;;23.20;60.50;;;;;;10398922;28;20041;-64
2022/07/18 20:45:24;;;;;;;4.25;2.30;;;23.20;60.50;;;;;;10369247;28;20084;-64
2022/07/18 20:50:25;;;;;;;3.70;2.45;;;23.20;60.50;;;;;;10365991;28;20424;-64
2022/07/18 20:55:26;;;;;;;4.65;2.25;;;23.20;60.50;;;;;;10365847;28;20076;-64
2022/07/18 21:00:27;;;;;;;3.28;1.83;;;23.20;60.50;;;;;;10405634;28;20057;-64
2022/07/18 21:05:27;;;;;;;3.83;2.30;;;23.20;60.50;;;;;;10407719;28;20029;-64
2022/07/18 21:10:28;;;;;;;4.57;1.95;;;23.20;60.40;;;;;;10373665;28;20112;-64
2022/07/18 21:15:29;;;;;;;4.72;2.08;;;23.20;60.40;;;;;;10373560;28;20049;-64
2022/07/18 21:20:30;;;;;;;3.65;1.80;;;23.20;60.50;;;;;;10393687;28;20056;-64
2022/07/18 21:25:31;;;;;;;2.90;2.00;;;23.20;60.50;;;;;;10372982;28;20025;-64
2022/07/18 21:30:36;;;;;;;3.60;2.00;;;23.10;60.50;;;;;;10380942;28;20041;-64
2022/07/18 21:35:38;;;;;;;3.30;2.25;;;23.20;60.40;;;;;;10393187;28;20030;-64
2022/07/18 21:40:39;;;;;;;5.15;2.17;;;23.20;60.30;;;;;;10412523;28;20046;-64
2022/07/18 21:45:39;;;;;;;3.85;2.65;;;23.20;60.30;;;;;;10385642;28;20570;-64
2022/07/18 21:50:40;;;;;;;3.35;2.10;;;23.20;60.30;;;;;;10374415;28;20037;-64
2022/07/18 21:55:41;;;;;;;2.97;2.22;;;23.20;60.30;;;;;;10412197;28;20132;-64
2022/07/18 22:00:41;;;;;;;3.55;2.08;;;23.20;60.30;;;;;;10413646;28;20040;-64
2022/07/18 22:05:42;;;;;;;3.13;1.83;;;23.20;60.20;;;;;;10394835;28;20037;-64
2022/07/18 22:10:43;;;;;;;2.72;1.77;;;23.10;60.10;;;;;;10373281;28;20109;-64
2022/07/18 22:15:43;;;;;;;4.35;2.03;;;23.20;60.00;;;;;;10371617;28;20034;-64
2022/07/18 22:20:44;;;;;;;4.35;2.38;;;23.20;60.10;;;;;;10376570;28;20030;-64
2022/07/18 22:25:45;;;;;;;3.40;2.05;;;23.20;60.20;;;;;;10374694;28;20037;-64
2022/07/18 22:30:46;;;;;;;2.65;1.70;;;23.20;60.20;;;;;;10391107;28;20478;-64
2022/07/18 22:35:46;;;;;;;3.97;1.63;;;23.20;60.00;;;;;;10370682;28;20075;-65
2022/07/18 22:40:47;;;;;;;3.53;2.63;;;23.20;59.80;;;;;;10370525;28;20052;-66
2022/07/18 22:45:48;;;;;;;2.70;1.80;;;23.20;59.80;;;;;;10409650;28;20045;-64
2022/07/18 22:50:49;;;;;;;2.95;2.10;;;23.20;59.90;;;;;;10385279;28;20488;-64
2022/07/18 22:55:50;;;;;;;2.97;1.95;;;23.20;59.80;;;;;;10379090;28;20026;-64
2022/07/18 23:00:51;;;;;;;3.30;2.45;;;23.10;59.70;;;;;;10397303;28;20037;-64
2022/07/18 23:05:51;;;;;;;3.08;2.50;;;23.20;59.70;;;;;;10397148;28;20120;-64
2022/07/18 23:10:52;;;;;;;3.13;1.83;;;23.20;59.80;;;;;;10389234;28;20132;-64
2022/07/18 23:15:53;;;;;;;2.45;1.52;;;23.10;59.70;;;;;;10382747;28;20369;-64
2022/07/18 23:20:54;;;;;;;2.95;2.00;;;23.20;59.70;;;;;;10370644;28;20035;-64
2022/07/18 23:25:54;;;;;;;2.97;1.80;;;23.20;59.70;;;;;;10368849;28;20414;-64
2022/07/18 23:30:55;;;;;;;3.33;1.90;;;23.10;59.60;;;;;;10388408;28;20026;-64
2022/07/18 23:35:56;;;;;;;4.03;2.33;;;23.20;59.70;;;;;;10382077;28;20040;-64
2022/07/18 23:40:57;;;;;;;3.10;1.80;;;23.20;59.60;;;;;;10379383;28;20052;-64
2022/07/18 23:45:57;;;;;;;2.85;1.95;;;23.20;59.60;;;;;;10390825;28;20476;-64
2022/07/18 23:50:58;;;;;;;2.67;1.63;;;23.20;59.60;;;;;;10408991;28;20104;-66
2022/07/18 23:55:59;;;;;;;2.85;2.45;;;23.10;59.50;;;;;;10395599;28;20032;-64
